sensor_id;sensor_type;location;lat;lon;timestamp;P1;durP1;ratioP1;P2;durP2;ratioP2
23588;SDS011;11972;48.078;11.876;2023-08-31T00:02:10;3.67;;;1.97;;
23588;SDS011;11972;48.078;11.876;2023-08-31T00:06:10;4.27;;;1.80;;
23588;SDS011;11972;48.078;11.876;2023-08-31T00:10:11;1.60;;;1.50;;
23588;SDS011;11972;48.078;11.876;2023-08-31T00:14:11;1.60;;;1.50;;
23588;SDS011;11972;48.078;11.876;2023-08-31T00:18:12;2.85;;;1.60;;
23588;SDS011;11972;48.078;11.876;2023-08-31T00:22:13;1.90;;;1.58;;
23588;SDS011;11972;48.078;11.876;2023-08-31T00:26:14;2.30;;;1.57;;
23588;SDS011;11972;48.078;11.876;2023-08-31T00:30:14;1.40;;;1.30;;
23588;SDS011;11972;48.078;11.876;2023-08-31T00:34:15;1.92;;;1.30;;
23588;SDS011;11972;48.078;11.876;2023-08-31T00:38:17;2.40;;;1.58;;
23588;SDS011;11972;48.078;11.876;2023-08-31T00:42:18;2.65;;;1.70;;
23588;SDS011;11972;48.078;11.876;2023-08-31T00:46:19;1.58;;;1.48;;
23588;SDS011;11972;48.078;11.876;2023-08-31T00:50:20;2.38;;;1.42;;
23588;SDS011;11972;48.078;11.876;2023-08-31T00:54:21;1.60;;;1.50;;
23588;SDS011;11972;48.078;11.876;2023-08-31T00:58:21;2.70;;;1.50;;
23588;SDS011;11972;48.078;11.876;2023-08-31T01:02:23;1.88;;;1.77;;
23588;SDS011;11972;48.078;11.876;2023-08-31T01:06:45;1.85;;;1.75;;
23588;SDS011;11972;48.078;11.876;2023-08-31T01:11:03;1.50;;;1.40;;
23588;SDS011;11972;48.078;11.876;2023-08-31T01:15:19;2.35;;;1.42;;
23588;SDS011;11972;48.078;11.876;2023-08-31T01:23:55;1.70;;;1.60;;
23588;SDS011;11972;48.078;11.876;2023-08-31T01:27:58;2.47;;;1.75;;
23588;SDS011;11972;48.078;11.876;2023-08-31T01:31:59;1.75;;;1.65;;
23588;SDS011;11972;48.078;11.876;2023-08-31T01:36:00;2.00;;;1.80;;
23588;SDS011;11972;48.078;11.876;2023-08-31T01:40:12;2.55;;;1.83;;
23588;SDS011;11972;48.078;11.876;2023-08-31T01:44:17;2.05;;;1.95;;
23588;SDS011;11972;48.078;11.876;2023-08-31T01:48:19;2.20;;;1.80;;
23588;SDS011;11972;48.078;11.876;2023-08-31T01:52:21;1.85;;;1.73;;
23588;SDS011;11972;48.078;11.876;2023-08-31T01:56:21;3.83;;;1.98;;
23588;SDS011;11972;48.078;11.876;2023-08-31T02:00:21;2.65;;;1.70;;
23588;SDS011;11972;48.078;11.876;2023-08-31T02:04:22;1.77;;;1.67;;
23588;SDS011;11972;48.078;11.876;2023-08-31T02:08:22;1.83;;;1.73;;
23588;SDS011;11972;48.078;11.876;2023-08-31T02:12:22;1.75;;;1.65;;
23588;SDS011;11972;48.078;11.876;2023-08-31T02:16:23;1.50;;;1.40;;
23588;SDS011;11972;48.078;11.876;2023-08-31T02:20:23;1.75;;;1.60;;
23588;SDS011;11972;48.078;11.876;2023-08-31T02:24:24;2.03;;;1.50;;
23588;SDS011;11972;48.078;11.876;2023-08-31T02:28:24;1.98;;;1.50;;
23588;SDS011;11972;48.078;11.876;2023-08-31T02:32:24;1.83;;;1.50;;
23588;SDS011;11972;48.078;11.876;2023-08-31T02:36:25;2.37;;;1.43;;
23588;SDS011;11972;48.078;11.876;2023-08-31T02:40:25;1.83;;;1.02;;
23588;SDS011;11972;48.078;11.876;2023-08-31T02:44:25;1.40;;;1.30;;
23588;SDS011;11972;48.078;11.876;2023-08-31T02:48:26;1.10;;;1.00;;
23588;SDS011;11972;48.078;11.876;2023-08-31T02:52:28;1.15;;;1.10;;
23588;SDS011;11972;48.078;11.876;2023-08-31T02:56:28;6.07;;;1.47;;
23588;SDS011;11972;48.078;11.876;2023-08-31T03:00:28;5.97;;;3.20;;
23588;SDS011;11972;48.078;11.876;2023-08-31T03:04:28;4.77;;;4.47;;
23588;SDS011;11972;48.078;11.876;2023-08-31T03:08:29;7.00;;;6.32;;
23588;SDS011;11972;48.078;11.876;2023-08-31T03:12:29;8.05;;;7.45;;
23588;SDS011;11972;48.078;11.876;2023-08-31T03:16:30;7.78;;;7.25;;
23588;SDS011;11972;48.078;11.876;2023-08-31T03:20:30;7.97;;;7.28;;
23588;SDS011;11972;48.078;11.876;2023-08-31T03:24:31;9.27;;;8.47;;
23588;SDS011;11972;48.078;11.876;2023-08-31T03:28:35;9.68;;;8.55;;
23588;SDS011;11972;48.078;11.876;2023-08-31T03:32:35;17.05;;;12.25;;
23588;SDS011;11972;48.078;11.876;2023-08-31T03:36:36;10.70;;;9.70;;
23588;SDS011;11972;48.078;11.876;2023-08-31T03:40:36;15.65;;;11.43;;
23588;SDS011;11972;48.078;11.876;2023-08-31T03:44:36;9.48;;;8.48;;
23588;SDS011;11972;48.078;11.876;2023-08-31T03:48:37;6.88;;;6.28;;
23588;SDS011;11972;48.078;11.876;2023-08-31T03:52:37;7.37;;;6.60;;
23588;SDS011;11972;48.078;11.876;2023-08-31T03:56:38;7.90;;;6.80;;
23588;SDS011;11972;48.078;11.876;2023-08-31T04:00:38;5.10;;;4.70;;
23588;SDS011;11972;48.078;11.876;2023-08-31T04:04:39;5.30;;;4.10;;
23588;SDS011;11972;48.078;11.876;2023-08-31T04:08:40;4.43;;;4.13;;
23588;SDS011;11972;48.078;11.876;2023-08-31T04:12:40;4.87;;;4.37;;
23588;SDS011;11972;48.078;11.876;2023-08-31T04:16:42;4.93;;;3.50;;
23588;SDS011;11972;48.078;11.876;2023-08-31T04:20:49;8.33;;;5.87;;
23588;SDS011;11972;48.078;11.876;2023-08-31T04:24:52;5.47;;;4.78;;
23588;SDS011;11972;48.078;11.876;2023-08-31T04:28:53;4.18;;;3.67;;
23588;SDS011;11972;48.078;11.876;2023-08-31T04:32:53;5.53;;;5.03;;
23588;SDS011;11972;48.078;11.876;2023-08-31T04:36:53;5.03;;;4.50;;
23588;SDS011;11972;48.078;11.876;2023-08-31T04:40:54;4.25;;;3.85;;
23588;SDS011;11972;48.078;11.876;2023-08-31T04:44:54;5.53;;;4.72;;
23588;SDS011;11972;48.078;11.876;2023-08-31T04:48:54;6.00;;;5.35;;
23588;SDS011;11972;48.078;11.876;2023-08-31T04:52:55;6.78;;;6.10;;
23588;SDS011;11972;48.078;11.876;2023-08-31T04:56:55;6.00;;;5.50;;
23588;SDS011;11972;48.078;11.876;2023-08-31T05:00:55;8.73;;;6.20;;
23588;SDS011;11972;48.078;11.876;2023-08-31T05:04:56;8.70;;;5.97;;
23588;SDS011;11972;48.078;11.876;2023-08-31T05:08:56;6.40;;;5.90;;
23588;SDS011;11972;48.078;11.876;2023-08-31T05:12:56;7.65;;;6.90;;
23588;SDS011;11972;48.078;11.876;2023-08-31T05:16:57;3.60;;;3.40;;
23588;SDS011;11972;48.078;11.876;2023-08-31T05:20:57;3.80;;;3.50;;
23588;SDS011;11972;48.078;11.876;2023-08-31T05:24:57;3.83;;;3.53;;
23588;SDS011;11972;48.078;11.876;2023-08-31T05:28:58;4.35;;;3.97;;
23588;SDS011;11972;48.078;11.876;2023-08-31T05:32:58;3.97;;;3.67;;
23588;SDS011;11972;48.078;11.876;2023-08-31T05:36:59;4.50;;;4.10;;
23588;SDS011;11972;48.078;11.876;2023-08-31T05:41:08;4.50;;;4.13;;
23588;SDS011;11972;48.078;11.876;2023-08-31T05:45:09;4.00;;;3.70;;
23588;SDS011;11972;48.078;11.876;2023-08-31T05:49:10;5.32;;;4.82;;
23588;SDS011;11972;48.078;11.876;2023-08-31T05:53:10;4.30;;;3.90;;
23588;SDS011;11972;48.078;11.876;2023-08-31T05:57:11;4.30;;;4.00;;
23588;SDS011;11972;48.078;11.876;2023-08-31T06:01:11;4.13;;;3.83;;
23588;SDS011;11972;48.078;11.876;2023-08-31T06:05:11;4.90;;;4.50;;
23588;SDS011;11972;48.078;11.876;2023-08-31T06:09:12;5.18;;;4.78;;
23588;SDS011;11972;48.078;11.876;2023-08-31T06:13:13;4.10;;;3.80;;
23588;SDS011;11972;48.078;11.876;2023-08-31T06:17:13;3.80;;;3.50;;
23588;SDS011;11972;48.078;11.876;2023-08-31T06:21:14;4.72;;;4.22;;
23588;SDS011;11972;48.078;11.876;2023-08-31T06:25:15;4.20;;;3.80;;
23588;SDS011;11972;48.078;11.876;2023-08-31T06:29:18;4.40;;;4.00;;
23588;SDS011;11972;48.078;11.876;2023-08-31T06:33:18;4.25;;;3.95;;
23588;SDS011;11972;48.078;11.876;2023-08-31T06:37:20;4.90;;;4.60;;
23588;SDS011;11972;48.078;11.876;2023-08-31T06:41:20;5.63;;;5.13;;
23588;SDS011;11972;48.078;11.876;2023-08-31T06:45:20;4.30;;;4.00;;
23588;SDS011;11972;48.078;11.876;2023-08-31T06:49:22;4.70;;;3.10;;
23588;SDS011;11972;48.078;11.876;2023-08-31T06:53:22;2.97;;;2.78;;
23588;SDS011;11972;48.078;11.876;2023-08-31T06:57:23;2.67;;;2.47;;
23588;SDS011;11972;48.078;11.876;2023-08-31T07:01:24;2.70;;;2.50;;
23588;SDS011;11972;48.078;11.876;2023-08-31T07:05:25;2.70;;;2.50;;
23588;SDS011;11972;48.078;11.876;2023-08-31T07:09:26;2.60;;;2.40;;
23588;SDS011;11972;48.078;11.876;2023-08-31T07:13:27;2.90;;;2.63;;
23588;SDS011;11972;48.078;11.876;2023-08-31T07:17:27;3.47;;;2.50;;
23588;SDS011;11972;48.078;11.876;2023-08-31T07:21:27;2.28;;;2.17;;
23588;SDS011;11972;48.078;11.876;2023-08-31T07:25:28;2.58;;;2.38;;
23588;SDS011;11972;48.078;11.876;2023-08-31T07:29:29;2.45;;;2.35;;
23588;SDS011;11972;48.078;11.876;2023-08-31T07:33:30;2.88;;;2.53;;
23588;SDS011;11972;48.078;11.876;2023-08-31T07:37:37;3.65;;;2.38;;
23588;SDS011;11972;48.078;11.876;2023-08-31T07:41:37;2.90;;;2.70;;
23588;SDS011;11972;48.078;11.876;2023-08-31T07:45:38;3.90;;;2.47;;
23588;SDS011;11972;48.078;11.876;2023-08-31T07:49:38;2.85;;;1.90;;
23588;SDS011;11972;48.078;11.876;2023-08-31T07:53:38;1.80;;;1.60;;
23588;SDS011;11972;48.078;11.876;2023-08-31T07:57:39;1.73;;;1.63;;
23588;SDS011;11972;48.078;11.876;2023-08-31T08:01:39;1.50;;;1.40;;
23588;SDS011;11972;48.078;11.876;2023-08-31T08:05:41;1.50;;;1.40;;
23588;SDS011;11972;48.078;11.876;2023-08-31T08:09:41;1.70;;;1.50;;
23588;SDS011;11972;48.078;11.876;2023-08-31T08:13:42;1.40;;;1.30;;
23588;SDS011;11972;48.078;11.876;2023-08-31T08:17:42;1.35;;;1.25;;
23588;SDS011;11972;48.078;11.876;2023-08-31T08:21:42;1.40;;;1.30;;
23588;SDS011;11972;48.078;11.876;2023-08-31T08:25:43;1.93;;;1.27;;
23588;SDS011;11972;48.078;11.876;2023-08-31T08:29:43;2.17;;;1.20;;
23588;SDS011;11972;48.078;11.876;2023-08-31T08:33:43;5.43;;;1.40;;
23588;SDS011;11972;48.078;11.876;2023-08-31T08:37:44;1.53;;;1.10;;
23588;SDS011;11972;48.078;11.876;2023-08-31T08:41:44;1.33;;;0.98;;
23588;SDS011;11972;48.078;11.876;2023-08-31T08:45:44;1.83;;;0.98;;
23588;SDS011;11972;48.078;11.876;2023-08-31T08:49:47;1.38;;;1.00;;
23588;SDS011;11972;48.078;11.876;2023-08-31T08:53:48;1.98;;;0.88;;
23588;SDS011;11972;48.078;11.876;2023-08-31T08:57:50;1.10;;;0.80;;
23588;SDS011;11972;48.078;11.876;2023-08-31T09:01:50;1.00;;;0.80;;
23588;SDS011;11972;48.078;11.876;2023-08-31T09:05:51;1.70;;;1.00;;
23588;SDS011;11972;48.078;11.876;2023-08-31T09:09:52;1.00;;;0.60;;
23588;SDS011;11972;48.078;11.876;2023-08-31T09:13:53;1.58;;;0.95;;
23588;SDS011;11972;48.078;11.876;2023-08-31T09:17:57;1.10;;;1.00;;
23588;SDS011;11972;48.078;11.876;2023-08-31T09:21:57;1.50;;;0.90;;
23588;SDS011;11972;48.078;11.876;2023-08-31T09:25:58;1.40;;;0.80;;
23588;SDS011;11972;48.078;11.876;2023-08-31T09:29:59;1.63;;;0.80;;
23588;SDS011;11972;48.078;11.876;2023-08-31T09:34:00;0.93;;;0.70;;
23588;SDS011;11972;48.078;11.876;2023-08-31T09:38:01;1.00;;;0.70;;
23588;SDS011;11972;48.078;11.876;2023-08-31T09:42:02;2.35;;;1.02;;
23588;SDS011;11972;48.078;11.876;2023-08-31T09:46:04;1.48;;;0.90;;
23588;SDS011;11972;48.078;11.876;2023-08-31T09:50:05;1.58;;;0.90;;
23588;SDS011;11972;48.078;11.876;2023-08-31T09:54:05;1.60;;;1.00;;
23588;SDS011;11972;48.078;11.876;2023-08-31T09:58:07;1.17;;;0.80;;
23588;SDS011;11972;48.078;11.876;2023-08-31T10:02:11;0.70;;;0.70;;
23588;SDS011;11972;48.078;11.876;2023-08-31T10:06:15;1.23;;;0.77;;
23588;SDS011;11972;48.078;11.876;2023-08-31T10:10:16;3.60;;;1.40;;
23588;SDS011;11972;48.078;11.876;2023-08-31T10:14:16;1.08;;;0.93;;
23588;SDS011;11972;48.078;11.876;2023-08-31T10:18:20;1.15;;;0.80;;
23588;SDS011;11972;48.078;11.876;2023-08-31T10:22:21;1.80;;;0.93;;
23588;SDS011;11972;48.078;11.876;2023-08-31T10:26:28;1.13;;;0.95;;
23588;SDS011;11972;48.078;11.876;2023-08-31T10:30:31;1.67;;;0.77;;
23588;SDS011;11972;48.078;11.876;2023-08-31T10:34:35;0.95;;;0.90;;
23588;SDS011;11972;48.078;11.876;2023-08-31T10:38:37;1.75;;;0.90;;
23588;SDS011;11972;48.078;11.876;2023-08-31T10:42:44;1.40;;;0.93;;
23588;SDS011;11972;48.078;11.876;2023-08-31T10:46:45;0.82;;;0.80;;
23588;SDS011;11972;48.078;11.876;2023-08-31T10:50:46;1.35;;;0.90;;
23588;SDS011;11972;48.078;11.876;2023-08-31T10:54:51;1.08;;;0.85;;
23588;SDS011;11972;48.078;11.876;2023-08-31T10:58:56;1.00;;;0.88;;
23588;SDS011;11972;48.078;11.876;2023-08-31T11:02:58;0.85;;;0.65;;
23588;SDS011;11972;48.078;11.876;2023-08-31T11:07:14;2.00;;;0.80;;
23588;SDS011;11972;48.078;11.876;2023-08-31T11:11:19;2.05;;;0.77;;
23588;SDS011;11972;48.078;11.876;2023-08-31T11:15:21;1.42;;;0.90;;
23588;SDS011;11972;48.078;11.876;2023-08-31T11:19:22;1.05;;;0.82;;
23588;SDS011;11972;48.078;11.876;2023-08-31T11:23:22;1.35;;;0.90;;
23588;SDS011;11972;48.078;11.876;2023-08-31T11:27:23;1.08;;;0.85;;
23588;SDS011;11972;48.078;11.876;2023-08-31T11:31:25;1.13;;;0.80;;
23588;SDS011;11972;48.078;11.876;2023-08-31T11:35:30;0.98;;;0.88;;
23588;SDS011;11972;48.078;11.876;2023-08-31T11:39:33;0.80;;;0.80;;
23588;SDS011;11972;48.078;11.876;2023-08-31T11:43:33;1.20;;;1.10;;
23588;SDS011;11972;48.078;11.876;2023-08-31T11:47:34;2.63;;;0.75;;
23588;SDS011;11972;48.078;11.876;2023-08-31T11:51:34;1.52;;;0.98;;
23588;SDS011;11972;48.078;11.876;2023-08-31T11:55:36;1.58;;;0.88;;
23588;SDS011;11972;48.078;11.876;2023-08-31T11:59:43;1.52;;;1.20;;
23588;SDS011;11972;48.078;11.876;2023-08-31T12:03:44;3.03;;;1.38;;
23588;SDS011;11972;48.078;11.876;2023-08-31T12:07:45;2.05;;;1.25;;
23588;SDS011;11972;48.078;11.876;2023-08-31T12:11:49;2.75;;;1.55;;
23588;SDS011;11972;48.078;11.876;2023-08-31T12:15:54;3.45;;;1.52;;
23588;SDS011;11972;48.078;11.876;2023-08-31T12:20:02;5.45;;;2.33;;
23588;SDS011;11972;48.078;11.876;2023-08-31T12:24:05;4.20;;;1.45;;
23588;SDS011;11972;48.078;11.876;2023-08-31T12:28:06;3.55;;;1.48;;
23588;SDS011;11972;48.078;11.876;2023-08-31T12:32:06;1.80;;;1.25;;
23588;SDS011;11972;48.078;11.876;2023-08-31T12:36:07;3.10;;;1.67;;
23588;SDS011;11972;48.078;11.876;2023-08-31T12:40:07;2.45;;;1.60;;
23588;SDS011;11972;48.078;11.876;2023-08-31T12:44:09;3.08;;;1.27;;
23588;SDS011;11972;48.078;11.876;2023-08-31T12:48:10;3.17;;;1.70;;
23588;SDS011;11972;48.078;11.876;2023-08-31T12:52:10;7.00;;;1.67;;
23588;SDS011;11972;48.078;11.876;2023-08-31T12:56:10;2.90;;;1.50;;
23588;SDS011;11972;48.078;11.876;2023-08-31T13:00:11;3.22;;;1.48;;
23588;SDS011;11972;48.078;11.876;2023-08-31T13:04:12;3.10;;;1.40;;
23588;SDS011;11972;48.078;11.876;2023-08-31T13:08:14;1.88;;;1.20;;
23588;SDS011;11972;48.078;11.876;2023-08-31T13:12:14;2.47;;;1.50;;
23588;SDS011;11972;48.078;11.876;2023-08-31T13:16:15;2.72;;;1.40;;
23588;SDS011;11972;48.078;11.876;2023-08-31T13:20:15;2.53;;;1.67;;
23588;SDS011;11972;48.078;11.876;2023-08-31T13:24:16;2.53;;;1.30;;
23588;SDS011;11972;48.078;11.876;2023-08-31T13:28:17;1.75;;;1.23;;
23588;SDS011;11972;48.078;11.876;2023-08-31T13:32:18;1.75;;;1.17;;
23588;SDS011;11972;48.078;11.876;2023-08-31T13:36:19;2.10;;;1.20;;
23588;SDS011;11972;48.078;11.876;2023-08-31T13:40:19;1.77;;;1.17;;
23588;SDS011;11972;48.078;11.876;2023-08-31T13:44:20;2.03;;;1.00;;
23588;SDS011;11972;48.078;11.876;2023-08-31T13:48:23;1.83;;;1.30;;
23588;SDS011;11972;48.078;11.876;2023-08-31T13:52:23;2.03;;;1.20;;
23588;SDS011;11972;48.078;11.876;2023-08-31T13:56:24;2.47;;;1.45;;
23588;SDS011;11972;48.078;11.876;2023-08-31T14:00:25;3.40;;;0.97;;
23588;SDS011;11972;48.078;11.876;2023-08-31T14:04:26;1.98;;;1.20;;
23588;SDS011;11972;48.078;11.876;2023-08-31T14:08:26;1.37;;;1.10;;
23588;SDS011;11972;48.078;11.876;2023-08-31T14:12:26;1.87;;;1.00;;
23588;SDS011;11972;48.078;11.876;2023-08-31T14:16:27;6.25;;;1.20;;
23588;SDS011;11972;48.078;11.876;2023-08-31T14:20:28;2.20;;;1.25;;
23588;SDS011;11972;48.078;11.876;2023-08-31T14:24:28;5.00;;;1.33;;
23588;SDS011;11972;48.078;11.876;2023-08-31T14:28:29;1.77;;;1.40;;
23588;SDS011;11972;48.078;11.876;2023-08-31T14:32:30;2.03;;;1.13;;
23588;SDS011;11972;48.078;11.876;2023-08-31T14:36:30;2.40;;;1.20;;
23588;SDS011;11972;48.078;11.876;2023-08-31T14:40:30;1.88;;;1.38;;
23588;SDS011;11972;48.078;11.876;2023-08-31T14:44:32;1.23;;;1.13;;
23588;SDS011;11972;48.078;11.876;2023-08-31T14:48:33;3.78;;;1.63;;
23588;SDS011;11972;48.078;11.876;2023-08-31T14:52:33;2.20;;;1.37;;
23588;SDS011;11972;48.078;11.876;2023-08-31T14:56:33;1.93;;;1.10;;
23588;SDS011;11972;48.078;11.876;2023-08-31T15:00:34;2.38;;;1.35;;
23588;SDS011;11972;48.078;11.876;2023-08-31T15:04:34;2.87;;;1.30;;
23588;SDS011;11972;48.078;11.876;2023-08-31T15:08:38;3.10;;;1.30;;
23588;SDS011;11972;48.078;11.876;2023-08-31T15:12:39;1.75;;;1.10;;
23588;SDS011;11972;48.078;11.876;2023-08-31T15:16:40;1.52;;;1.10;;
23588;SDS011;11972;48.078;11.876;2023-08-31T15:20:40;1.60;;;1.25;;
23588;SDS011;11972;48.078;11.876;2023-08-31T15:24:42;2.58;;;1.23;;
23588;SDS011;11972;48.078;11.876;2023-08-31T15:28:43;2.95;;;1.00;;
23588;SDS011;11972;48.078;11.876;2023-08-31T15:32:44;2.13;;;1.23;;
23588;SDS011;11972;48.078;11.876;2023-08-31T15:36:45;2.25;;;1.10;;
23588;SDS011;11972;48.078;11.876;2023-08-31T15:40:46;2.33;;;0.90;;
23588;SDS011;11972;48.078;11.876;2023-08-31T15:44:47;2.65;;;1.10;;
23588;SDS011;11972;48.078;11.876;2023-08-31T15:48:48;1.83;;;1.00;;
23588;SDS011;11972;48.078;11.876;2023-08-31T15:52:48;1.67;;;1.02;;
23588;SDS011;11972;48.078;11.876;2023-08-31T15:56:48;2.17;;;0.90;;
23588;SDS011;11972;48.078;11.876;2023-08-31T16:00:50;2.07;;;1.00;;
23588;SDS011;11972;48.078;11.876;2023-08-31T16:04:54;2.00;;;1.05;;
23588;SDS011;11972;48.078;11.876;2023-08-31T16:08:54;1.20;;;1.10;;
23588;SDS011;11972;48.078;11.876;2023-08-31T16:12:55;4.57;;;1.55;;
23588;SDS011;11972;48.078;11.876;2023-08-31T16:16:57;2.80;;;1.20;;
23588;SDS011;11972;48.078;11.876;2023-08-31T16:21:00;1.75;;;0.75;;
23588;SDS011;11972;48.078;11.876;2023-08-31T16:25:00;2.25;;;1.00;;
23588;SDS011;11972;48.078;11.876;2023-08-31T16:29:01;3.05;;;1.08;;
23588;SDS011;11972;48.078;11.876;2023-08-31T16:33:01;3.17;;;1.13;;
23588;SDS011;11972;48.078;11.876;2023-08-31T16:37:02;1.90;;;1.20;;
23588;SDS011;11972;48.078;11.876;2023-08-31T16:41:04;2.17;;;1.20;;
23588;SDS011;11972;48.078;11.876;2023-08-31T16:45:05;3.22;;;1.55;;
23588;SDS011;11972;48.078;11.876;2023-08-31T16:49:06;1.70;;;1.05;;
23588;SDS011;11972;48.078;11.876;2023-08-31T16:53:07;3.03;;;1.00;;
23588;SDS011;11972;48.078;11.876;2023-08-31T16:57:07;2.75;;;1.10;;
23588;SDS011;11972;48.078;11.876;2023-08-31T17:01:07;1.65;;;1.02;;
23588;SDS011;11972;48.078;11.876;2023-08-31T17:05:08;2.20;;;1.73;;
23588;SDS011;11972;48.078;11.876;2023-08-31T17:09:08;4.65;;;1.40;;
23588;SDS011;11972;48.078;11.876;2023-08-31T17:13:09;2.13;;;1.20;;
23588;SDS011;11972;48.078;11.876;2023-08-31T17:17:09;2.03;;;1.58;;
23588;SDS011;11972;48.078;11.876;2023-08-31T17:21:09;2.83;;;1.33;;
23588;SDS011;11972;48.078;11.876;2023-08-31T17:25:10;3.37;;;1.43;;
23588;SDS011;11972;48.078;11.876;2023-08-31T17:29:11;6.63;;;1.80;;
23588;SDS011;11972;48.078;11.876;2023-08-31T17:33:14;3.22;;;1.45;;
23588;SDS011;11972;48.078;11.876;2023-08-31T17:37:14;2.85;;;1.80;;
23588;SDS011;11972;48.078;11.876;2023-08-31T17:41:14;6.00;;;2.47;;
23588;SDS011;11972;48.078;11.876;2023-08-31T17:45:15;3.45;;;2.65;;
23588;SDS011;11972;48.078;11.876;2023-08-31T17:49:15;2.95;;;1.85;;
23588;SDS011;11972;48.078;11.876;2023-08-31T17:53:15;4.43;;;1.10;;
23588;SDS011;11972;48.078;11.876;2023-08-31T17:57:17;1.48;;;0.90;;
23588;SDS011;11972;48.078;11.876;2023-08-31T18:01:17;3.78;;;1.67;;
23588;SDS011;11972;48.078;11.876;2023-08-31T18:05:18;2.33;;;1.30;;
23588;SDS011;11972;48.078;11.876;2023-08-31T18:09:21;2.40;;;1.63;;
23588;SDS011;11972;48.078;11.876;2023-08-31T18:13:21;3.17;;;1.83;;
23588;SDS011;11972;48.078;11.876;2023-08-31T18:17:22;2.75;;;1.55;;
23588;SDS011;11972;48.078;11.876;2023-08-31T18:21:23;3.77;;;1.40;;
23588;SDS011;11972;48.078;11.876;2023-08-31T18:25:23;3.38;;;1.55;;
23588;SDS011;11972;48.078;11.876;2023-08-31T18:29:25;1.65;;;1.20;;
23588;SDS011;11972;48.078;11.876;2023-08-31T18:33:26;3.73;;;1.40;;
23588;SDS011;11972;48.078;11.876;2023-08-31T18:37:27;3.17;;;1.95;;
23588;SDS011;11972;48.078;11.876;2023-08-31T18:41:27;1.98;;;1.20;;
23588;SDS011;11972;48.078;11.876;2023-08-31T18:45:28;2.13;;;1.43;;
23588;SDS011;11972;48.078;11.876;2023-08-31T18:49:28;6.40;;;4.27;;
23588;SDS011;11972;48.078;11.876;2023-08-31T18:53:29;1.95;;;1.35;;
23588;SDS011;11972;48.078;11.876;2023-08-31T18:57:30;3.55;;;1.40;;
23588;SDS011;11972;48.078;11.876;2023-08-31T19:01:30;3.13;;;2.70;;
23588;SDS011;11972;48.078;11.876;2023-08-31T19:05:30;2.90;;;2.07;;
23588;SDS011;11972;48.078;11.876;2023-08-31T19:09:32;2.83;;;2.42;;
23588;SDS011;11972;48.078;11.876;2023-08-31T19:13:32;2.73;;;1.87;;
23588;SDS011;11972;48.078;11.876;2023-08-31T19:17:32;3.50;;;1.60;;
23588;SDS011;11972;48.078;11.876;2023-08-31T19:21:33;1.58;;;1.23;;
23588;SDS011;11972;48.078;11.876;2023-08-31T19:25:33;3.37;;;2.90;;
23588;SDS011;11972;48.078;11.876;2023-08-31T19:29:33;2.53;;;2.10;;
23588;SDS011;11972;48.078;11.876;2023-08-31T19:33:34;3.15;;;2.17;;
23588;SDS011;11972;48.078;11.876;2023-08-31T19:37:35;3.23;;;2.80;;
23588;SDS011;11972;48.078;11.876;2023-08-31T19:41:36;4.85;;;2.08;;
23588;SDS011;11972;48.078;11.876;2023-08-31T19:45:37;2.30;;;1.98;;
23588;SDS011;11972;48.078;11.876;2023-08-31T19:49:37;3.42;;;1.30;;
23588;SDS011;11972;48.078;11.876;2023-08-31T19:53:37;1.87;;;1.40;;
23588;SDS011;11972;48.078;11.876;2023-08-31T19:57:38;5.10;;;1.88;;
23588;SDS011;11972;48.078;11.876;2023-08-31T20:01:39;3.17;;;2.85;;
23588;SDS011;11972;48.078;11.876;2023-08-31T20:05:39;3.33;;;1.67;;
23588;SDS011;11972;48.078;11.876;2023-08-31T20:09:40;3.17;;;2.22;;
23588;SDS011;11972;48.078;11.876;2023-08-31T20:13:40;1.67;;;1.50;;
23588;SDS011;11972;48.078;11.876;2023-08-31T20:17:40;3.73;;;3.43;;
23588;SDS011;11972;48.078;11.876;2023-08-31T20:21:42;2.25;;;2.03;;
23588;SDS011;11972;48.078;11.876;2023-08-31T20:25:42;4.30;;;2.70;;
23588;SDS011;11972;48.078;11.876;2023-08-31T20:29:43;5.00;;;2.05;;
23588;SDS011;11972;48.078;11.876;2023-08-31T20:33:43;3.67;;;2.65;;
23588;SDS011;11972;48.078;11.876;2023-08-31T20:37:43;3.23;;;1.70;;
23588;SDS011;11972;48.078;11.876;2023-08-31T20:41:44;3.47;;;2.65;;
23588;SDS011;11972;48.078;11.876;2023-08-31T20:45:44;4.65;;;2.70;;
23588;SDS011;11972;48.078;11.876;2023-08-31T20:49:45;8.73;;;1.90;;
23588;SDS011;11972;48.078;11.876;2023-08-31T20:53:45;7.55;;;3.70;;
23588;SDS011;11972;48.078;11.876;2023-08-31T20:57:45;1.90;;;1.70;;
23588;SDS011;11972;48.078;11.876;2023-08-31T21:01:46;2.78;;;1.63;;
23588;SDS011;11972;48.078;11.876;2023-08-31T21:05:46;2.78;;;1.33;;
23588;SDS011;11972;48.078;11.876;2023-08-31T21:09:49;1.70;;;1.42;;
23588;SDS011;11972;48.078;11.876;2023-08-31T21:13:50;2.78;;;1.30;;
23588;SDS011;11972;48.078;11.876;2023-08-31T21:17:51;3.08;;;1.50;;
23588;SDS011;11972;48.078;11.876;2023-08-31T21:21:53;1.65;;;1.50;;
23588;SDS011;11972;48.078;11.876;2023-08-31T21:25:53;1.88;;;1.40;;
23588;SDS011;11972;48.078;11.876;2023-08-31T21:29:54;2.55;;;1.58;;
23588;SDS011;11972;48.078;11.876;2023-08-31T21:33:54;2.43;;;1.40;;
23588;SDS011;11972;48.078;11.876;2023-08-31T21:37:54;5.37;;;4.90;;
23588;SDS011;11972;48.078;11.876;2023-08-31T21:41:55;4.50;;;1.97;;
23588;SDS011;11972;48.078;11.876;2023-08-31T21:45:59;4.20;;;1.70;;
23588;SDS011;11972;48.078;11.876;2023-08-31T21:50:00;3.53;;;1.77;;
23588;SDS011;11972;48.078;11.876;2023-08-31T21:54:01;1.95;;;1.45;;
23588;SDS011;11972;48.078;11.876;2023-08-31T21:58:02;1.85;;;1.60;;
23588;SDS011;11972;48.078;11.876;2023-08-31T22:02:02;2.45;;;2.25;;
23588;SDS011;11972;48.078;11.876;2023-08-31T22:06:06;2.25;;;1.67;;
23588;SDS011;11972;48.078;11.876;2023-08-31T22:10:07;2.72;;;1.40;;
23588;SDS011;11972;48.078;11.876;2023-08-31T22:14:08;2.92;;;1.90;;
23588;SDS011;11972;48.078;11.876;2023-08-31T22:18:10;2.20;;;1.65;;
23588;SDS011;11972;48.078;11.876;2023-08-31T22:22:11;1.58;;;1.20;;
23588;SDS011;11972;48.078;11.876;2023-08-31T22:26:13;2.30;;;1.50;;
23588;SDS011;11972;48.078;11.876;2023-08-31T22:30:13;2.33;;;1.50;;
23588;SDS011;11972;48.078;11.876;2023-08-31T22:34:14;2.17;;;1.38;;
23588;SDS011;11972;48.078;11.876;2023-08-31T22:38:14;4.20;;;2.15;;
23588;SDS011;11972;48.078;11.876;2023-08-31T22:42:14;3.37;;;1.90;;
23588;SDS011;11972;48.078;11.876;2023-08-31T22:46:15;3.67;;;1.87;;
23588;SDS011;11972;48.078;11.876;2023-08-31T22:50:15;4.13;;;1.73;;
23588;SDS011;11972;48.078;11.876;2023-08-31T22:54:15;3.10;;;1.42;;
23588;SDS011;11972;48.078;11.876;2023-08-31T22:58:16;5.30;;;1.60;;
23588;SDS011;11972;48.078;11.876;2023-08-31T23:02:16;5.20;;;2.50;;
23588;SDS011;11972;48.078;11.876;2023-08-31T23:06:17;2.17;;;1.60;;
23588;SDS011;11972;48.078;11.876;2023-08-31T23:10:18;2.20;;;1.65;;
23588;SDS011;11972;48.078;11.876;2023-08-31T23:14:19;3.05;;;2.00;;
23588;SDS011;11972;48.078;11.876;2023-08-31T23:18:19;3.85;;;1.70;;
23588;SDS011;11972;48.078;11.876;2023-08-31T23:22:20;2.00;;;1.83;;
23588;SDS011;11972;48.078;11.876;2023-08-31T23:26:20;2.72;;;1.85;;
23588;SDS011;11972;48.078;11.876;2023-08-31T23:30:21;5.30;;;2.30;;
23588;SDS011;11972;48.078;11.876;2023-08-31T23:34:21;2.13;;;1.70;;
23588;SDS011;11972;48.078;11.876;2023-08-31T23:38:22;3.37;;;1.70;;
23588;SDS011;11972;48.078;11.876;2023-08-31T23:42:23;3.05;;;1.70;;
23588;SDS011;11972;48.078;11.876;2023-08-31T23:46:23;3.88;;;1.70;;
23588;SDS011;11972;48.078;11.876;2023-08-31T23:50:24;2.42;;;1.60;;
23588;SDS011;11972;48.078;11.876;2023-08-31T23:54:25;3.25;;;2.08;;